createdAt,value
2019-06-19T00:00:52.656Z,17
2019-06-19T00:01:59.612Z,17
2019-06-19T00:03:09.317Z,17
2019-06-19T00:04:16.543Z,17
2019-06-19T00:05:23.752Z,17
2019-06-19T00:06:33.329Z,16.9
2019-06-19T00:07:43.160Z,16.9
2019-06-19T00:08:52.839Z,16.9
2019-06-19T00:10:00.050Z,16.8
2019-06-19T00:11:12.583Z,16.8
2019-06-19T00:12:19.958Z,16.9
2019-06-19T00:13:29.536Z,16.8
2019-06-19T00:14:39.171Z,16.8
2019-06-19T00:15:48.654Z,16.8
2019-06-19T00:16:55.896Z,16.8
2019-06-19T00:18:03.599Z,16.7
2019-06-19T00:19:13.080Z,16.7
2019-06-19T00:20:22.810Z,16.8
2019-06-19T00:21:30.026Z,16.7
2019-06-19T00:22:39.610Z,16.7
2019-06-19T00:23:49.283Z,16.7
2019-06-19T00:24:56.505Z,16.7
2019-06-19T00:26:04.278Z,16.7
2019-06-19T00:27:11.513Z,16.6
2019-06-19T00:28:30.578Z,16.6
2019-06-19T00:29:44.485Z,16.6
2019-06-19T00:30:53.410Z,16.7
2019-06-19T00:32:01.228Z,16.7
2019-06-19T00:33:08.446Z,16.7
2019-06-19T00:34:17.666Z,16.7
2019-06-19T00:35:27.634Z,16.7
2019-06-19T00:36:37.776Z,16.7
2019-06-19T00:37:45.014Z,16.7
2019-06-19T00:38:52.243Z,16.7
2019-06-19T00:40:01.781Z,16.7
2019-06-19T00:41:11.719Z,16.7
2019-06-19T00:42:21.057Z,16.7
2019-06-19T00:43:28.310Z,16.7
2019-06-19T00:44:40.709Z,16.7
2019-06-19T00:45:48.011Z,16.7
2019-06-19T00:46:57.304Z,16.7
2019-06-19T00:48:07.153Z,16.7
2019-06-19T00:49:14.375Z,16.8
2019-06-19T00:50:22.367Z,16.7
2019-06-19T00:51:31.740Z,16.7
2019-06-19T00:52:40.688Z,16.7
2019-06-19T00:53:47.726Z,16.7
2019-06-19T00:54:57.367Z,16.7
2019-06-19T00:56:04.304Z,16.7
2019-06-19T00:57:11.729Z,16.7
2019-06-19T00:58:21.808Z,16.7
2019-06-19T00:59:31.070Z,16.7
2019-06-19T01:00:40.671Z,16.6
2019-06-19T01:01:50.686Z,16.7
2019-06-19T01:02:57.756Z,16.6
2019-06-19T01:04:07.191Z,16.6
2019-06-19T01:05:14.435Z,16.6
2019-06-19T01:06:22.315Z,16.6
2019-06-19T01:07:31.398Z,16.6
2019-06-19T01:08:41.754Z,16.5
2019-06-19T01:09:51.445Z,16.5
2019-06-19T01:11:01.175Z,16.5
2019-06-19T01:12:11.033Z,16.6
2019-06-19T01:13:17.864Z,16.5
2019-06-19T01:14:28.266Z,16.5
2019-06-19T01:15:38.062Z,16.5
2019-06-19T01:16:45.273Z,16.5
2019-06-19T01:17:52.519Z,16.5
2019-06-19T01:19:01.275Z,16.5
2019-06-19T01:20:11.125Z,16.5
2019-06-19T01:21:22.592Z,16.5
2019-06-19T01:22:31.439Z,16.5
2019-06-19T01:23:41.378Z,16.5
2019-06-19T01:24:51.436Z,16.5
2019-06-19T01:25:58.651Z,16.5
2019-06-19T01:27:08.734Z,16.5
2019-06-19T01:28:18.489Z,16.5
2019-06-19T01:29:28.205Z,16.5
2019-06-19T01:30:37.958Z,16.5
2019-06-19T01:31:50.536Z,16.5
2019-06-19T01:32:57.881Z,16.5
2019-06-19T01:34:07.561Z,16.5
2019-06-19T01:35:14.500Z,16.5
2019-06-19T01:36:21.814Z,16.5
2019-06-19T01:37:28.485Z,16.5
2019-06-19T01:38:37.732Z,16.5
2019-06-19T01:39:47.489Z,16.5
2019-06-19T01:40:57.370Z,16.4
2019-06-19T01:42:07.207Z,16.4
2019-06-19T01:43:14.445Z,16.4
2019-06-19T01:44:21.693Z,16.4
2019-06-19T01:45:31.322Z,16.4
2019-06-19T01:46:41.280Z,16.4
2019-06-19T01:47:48.238Z,16.4
2019-06-19T01:48:57.949Z,16.5
2019-06-19T01:50:07.433Z,16.4
2019-06-19T01:51:14.656Z,16.4
2019-06-19T01:52:22.664Z,16.4
2019-06-19T01:53:32.056Z,16.4
2019-06-19T01:54:41.645Z,16.4
2019-06-19T01:55:51.189Z,16.4
2019-06-19T01:57:01.060Z,16.4
2019-06-19T01:58:08.002Z,16.4
2019-06-19T01:59:17.591Z,16.4
2019-06-19T02:00:36.145Z,16.4
2019-06-19T02:01:43.458Z,16.4
2019-06-19T02:02:51.805Z,16.4
2019-06-19T02:04:01.444Z,16.3
2019-06-19T02:05:08.670Z,16.4
2019-06-19T02:06:21.196Z,16.3
2019-06-19T02:07:31.413Z,16.3
2019-06-19T02:08:41.393Z,16.3
2019-06-19T02:09:51.391Z,16.3
2019-06-19T02:11:01.306Z,16.3
2019-06-19T02:12:11.976Z,16.3
2019-06-19T02:13:21.804Z,16.3
2019-06-19T02:14:31.383Z,16.3
2019-06-19T02:15:41.587Z,16.3
2019-06-19T02:16:51.802Z,16.3
2019-06-19T02:18:01.529Z,16.3
2019-06-19T02:19:11.233Z,16.3
2019-06-19T02:20:21.751Z,16.3
2019-06-19T02:21:31.290Z,16.3
2019-06-19T02:22:41.070Z,16.3
2019-06-19T02:23:50.390Z,16.3
2019-06-19T02:24:57.789Z,16.3
2019-06-19T02:26:07.551Z,16.3
2019-06-19T02:27:17.952Z,16.3
2019-06-19T02:28:27.265Z,16.3
2019-06-19T02:29:34.506Z,16.3
2019-06-19T02:31:10.261Z,16.3
2019-06-19T02:32:23.283Z,16.3
2019-06-19T02:33:32.819Z,16.3
2019-06-19T02:34:42.753Z,16.3
2019-06-19T02:35:52.362Z,16.2
2019-06-19T02:37:02.811Z,16.2
2019-06-19T02:38:13.298Z,16.3
2019-06-19T02:39:22.554Z,16.2
2019-06-19T02:40:31.283Z,16.2
2019-06-19T02:41:41.127Z,16.2
2019-06-19T02:42:48.368Z,16.2
2019-06-19T02:43:55.618Z,16.2
2019-06-19T02:45:02.855Z,16.2
2019-06-19T02:46:10.091Z,16.2
2019-06-19T02:47:17.310Z,16.2
2019-06-19T02:48:24.784Z,16.1
2019-06-19T02:49:31.988Z,16.1
2019-06-19T02:50:39.218Z,16.1
2019-06-19T02:51:46.155Z,16.1
2019-06-19T02:52:53.391Z,16.1
2019-06-19T02:54:00.595Z,16.1
2019-06-19T02:55:07.549Z,16.1
2019-06-19T02:56:14.761Z,16.1
2019-06-19T02:57:21.990Z,16
2019-06-19T02:58:29.269Z,16
2019-06-19T02:59:36.505Z,16
2019-06-19T03:00:43.720Z,16
2019-06-19T03:01:50.949Z,16
2019-06-19T03:02:58.194Z,16
2019-06-19T03:04:05.427Z,16
2019-06-19T03:05:12.361Z,16
2019-06-19T03:06:19.315Z,16
2019-06-19T03:07:26.254Z,16
2019-06-19T03:08:33.489Z,15.9
2019-06-19T03:09:40.441Z,15.9
2019-06-19T03:10:47.675Z,15.9
2019-06-19T03:11:54.662Z,15.9
2019-06-19T03:13:01.615Z,15.9
2019-06-19T03:14:08.858Z,15.9
2019-06-19T03:15:16.083Z,15.9
2019-06-19T03:16:22.771Z,15.9
2019-06-19T03:17:30.042Z,15.9
2019-06-19T03:18:37.251Z,15.9
2019-06-19T03:19:44.471Z,15.8
2019-06-19T03:20:51.709Z,15.8
2019-06-19T03:21:59.024Z,15.8
2019-06-19T03:23:06.232Z,15.8
2019-06-19T03:24:12.912Z,15.8
2019-06-19T03:25:23.440Z,15.8
2019-06-19T03:26:29.857Z,15.7
2019-06-19T03:27:36.795Z,15.7
2019-06-19T03:28:44.034Z,15.7
2019-06-19T03:29:51.275Z,15.7
2019-06-19T03:30:58.224Z,15.7
2019-06-19T03:32:05.452Z,15.7
2019-06-19T03:33:12.671Z,15.7
2019-06-19T03:34:19.892Z,15.7
2019-06-19T03:35:27.115Z,15.7
2019-06-19T03:36:34.358Z,15.7
2019-06-19T03:37:41.584Z,15.7
2019-06-19T03:38:48.809Z,15.7
2019-06-19T03:39:55.778Z,15.7
2019-06-19T03:41:03.014Z,15.7
2019-06-19T03:42:10.241Z,15.7
2019-06-19T03:43:17.452Z,15.7
2019-06-19T03:44:24.720Z,15.7
2019-06-19T03:45:32.070Z,15.6
2019-06-19T03:46:39.407Z,15.6
2019-06-19T03:47:46.338Z,15.6
2019-06-19T03:48:53.296Z,15.6
2019-06-19T03:50:00.516Z,15.6
2019-06-19T03:51:07.469Z,15.6
2019-06-19T03:52:14.146Z,15.6
2019-06-19T03:53:21.105Z,15.6
2019-06-19T03:54:28.322Z,15.5
2019-06-19T03:55:35.558Z,15.5
2019-06-19T03:56:42.497Z,15.5
2019-06-19T03:57:49.752Z,15.5
2019-06-19T03:58:56.685Z,15.5
2019-06-19T04:00:03.926Z,15.6
2019-06-19T04:01:11.145Z,15.5
2019-06-19T04:02:18.414Z,15.5
2019-06-19T04:03:25.657Z,15.6
2019-06-19T04:04:32.891Z,15.6
2019-06-19T04:05:40.110Z,15.6
2019-06-19T04:06:47.332Z,15.6
2019-06-19T04:07:54.563Z,15.6
2019-06-19T04:09:01.869Z,15.6
2019-06-19T04:10:09.093Z,15.5
2019-06-19T04:11:16.372Z,15.5
2019-06-19T04:12:23.587Z,15.5
2019-06-19T04:13:30.646Z,15.6
2019-06-19T04:14:37.618Z,15.6
2019-06-19T04:15:44.859Z,15.6
2019-06-19T04:16:52.064Z,15.6
2019-06-19T04:17:59.292Z,15.6
2019-06-19T04:19:06.517Z,15.6
2019-06-19T04:20:13.740Z,15.6
2019-06-19T04:21:20.969Z,15.7
2019-06-19T04:22:28.198Z,15.7
2019-06-19T04:23:35.424Z,15.7
2019-06-19T04:24:42.649Z,15.7
2019-06-19T04:25:49.588Z,15.7
2019-06-19T04:26:56.560Z,15.7
2019-06-19T04:28:03.507Z,15.8
2019-06-19T04:29:10.735Z,15.8
2019-06-19T04:30:17.953Z,15.8
2019-06-19T04:31:25.180Z,15.9
2019-06-19T04:32:32.397Z,15.9
2019-06-19T04:33:39.627Z,15.9
2019-06-19T04:34:46.835Z,16
2019-06-19T04:35:54.059Z,16
2019-06-19T04:37:01.268Z,16
2019-06-19T04:38:08.500Z,16
2019-06-19T04:39:15.440Z,16
2019-06-19T04:40:22.667Z,16
2019-06-19T04:41:29.873Z,16
2019-06-19T04:42:36.831Z,16
2019-06-19T04:43:43.795Z,16
2019-06-19T04:44:51.034Z,16
2019-06-19T04:45:58.253Z,16.1
2019-06-19T04:47:05.628Z,16.2
2019-06-19T04:48:12.842Z,16.3
2019-06-19T04:49:20.082Z,16.3
2019-06-19T04:50:27.318Z,16.4
2019-06-19T04:51:34.542Z,16.5
2019-06-19T04:52:46.973Z,16.5
2019-06-19T04:53:54.324Z,16.6
2019-06-19T04:55:01.538Z,16.6
2019-06-19T04:56:08.517Z,16.7
2019-06-19T04:57:15.721Z,16.8
2019-06-19T04:58:22.952Z,16.8
2019-06-19T04:59:30.176Z,16.9
2019-06-19T05:00:37.133Z,16.9
2019-06-19T05:01:44.344Z,16.9
2019-06-19T05:02:51.579Z,17
2019-06-19T05:03:58.793Z,17.1
2019-06-19T05:05:06.025Z,17.1
2019-06-19T05:06:13.275Z,17.2
2019-06-19T05:07:20.490Z,17.2
2019-06-19T05:08:27.704Z,17.2
2019-06-19T05:09:34.678Z,17.2
2019-06-19T05:10:41.893Z,17.3
2019-06-19T05:11:48.845Z,17.2
2019-06-19T05:12:56.144Z,17.1
2019-06-19T05:14:03.452Z,17.2
2019-06-19T05:15:10.673Z,17.2
2019-06-19T05:16:17.895Z,17.3
2019-06-19T05:17:25.248Z,17.4
2019-06-19T05:18:32.509Z,17.5
2019-06-19T05:19:39.458Z,17.6
2019-06-19T05:20:46.682Z,17.7
2019-06-19T05:21:53.630Z,17.8
2019-06-19T05:23:00.896Z,17.9
2019-06-19T05:24:08.112Z,18.1
2019-06-19T05:25:15.344Z,18.2
2019-06-19T05:26:22.281Z,18.4
2019-06-19T05:27:29.514Z,18.6
2019-06-19T05:28:36.737Z,18.8
2019-06-19T05:29:43.962Z,18.9
2019-06-19T05:30:50.894Z,19
2019-06-19T05:31:58.263Z,19.1
2019-06-19T05:33:05.253Z,19.3
2019-06-19T05:34:12.489Z,19.3
2019-06-19T05:35:23.113Z,19.5
2019-06-19T05:36:30.071Z,19.6
2019-06-19T05:37:37.016Z,19.8
2019-06-19T05:38:44.244Z,19.9
2019-06-19T05:39:51.465Z,20
2019-06-19T05:40:58.711Z,20.1
2019-06-19T05:42:05.634Z,20.1
2019-06-19T05:43:12.982Z,20.2
2019-06-19T05:44:20.213Z,20.4
2019-06-19T05:45:27.452Z,20.4
2019-06-19T05:46:34.675Z,20.5
2019-06-19T05:47:41.906Z,20.7
2019-06-19T05:48:48.903Z,20.8
2019-06-19T05:49:56.168Z,20.9
2019-06-19T05:51:03.247Z,20.8
2019-06-19T05:52:10.480Z,20.9
2019-06-19T05:53:17.419Z,20.9
2019-06-19T05:54:24.097Z,20.9
2019-06-19T05:55:31.042Z,20.9
2019-06-19T05:56:38.270Z,20.9
2019-06-19T05:57:45.232Z,20.9
2019-06-19T05:58:52.182Z,20.9
2019-06-19T05:59:59.411Z,20.9
2019-06-19T06:01:06.653Z,21
2019-06-19T06:02:13.874Z,21
2019-06-19T06:03:21.106Z,21
2019-06-19T06:04:28.049Z,20.9
2019-06-19T06:05:35.283Z,20.9
2019-06-19T06:06:42.503Z,20.9
2019-06-19T06:07:49.736Z,21.1
2019-06-19T06:08:56.954Z,21.1
2019-06-19T06:10:03.904Z,21.3
2019-06-19T06:11:11.221Z,21.4
2019-06-19T06:12:18.514Z,21.5
2019-06-19T06:13:25.771Z,21.7
2019-06-19T06:14:32.839Z,21.8
2019-06-19T06:15:40.053Z,21.9
2019-06-19T06:16:47.292Z,22
2019-06-19T06:17:54.248Z,22
2019-06-19T06:19:01.482Z,22
2019-06-19T06:20:08.707Z,22.1
2019-06-19T06:21:15.684Z,22
2019-06-19T06:22:22.659Z,22
2019-06-19T06:23:29.897Z,21.8
2019-06-19T06:24:37.108Z,21.7
2019-06-19T06:25:44.340Z,21.7
2019-06-19T06:26:51.566Z,21.8
2019-06-19T06:27:58.861Z,22
2019-06-19T06:29:06.075Z,22.2
2019-06-19T06:30:13.348Z,22.5
2019-06-19T06:31:20.287Z,22.7
2019-06-19T06:32:27.524Z,23
2019-06-19T06:33:34.742Z,23.2
2019-06-19T06:34:41.976Z,23.4
2019-06-19T06:35:49.209Z,23.4
2019-06-19T06:36:56.179Z,23.6
2019-06-19T06:38:03.431Z,23.6
2019-06-19T06:39:10.676Z,23.7
2019-06-19T06:40:17.912Z,23.8
2019-06-19T06:41:25.222Z,23.9
2019-06-19T06:42:32.180Z,23.8
2019-06-19T06:43:39.469Z,23.9
2019-06-19T06:44:46.753Z,23.9
2019-06-19T06:45:53.990Z,23.9
2019-06-19T06:47:01.203Z,24.1
2019-06-19T06:48:08.183Z,24.1
2019-06-19T06:49:15.123Z,24.1
2019-06-19T06:50:22.349Z,24.3
2019-06-19T06:51:29.030Z,24.5
2019-06-19T06:52:36.264Z,24.7
2019-06-19T06:53:43.484Z,24.9
2019-06-19T06:54:50.734Z,25.1
2019-06-19T06:55:59.395Z,25.3
2019-06-19T06:57:06.623Z,25.4
2019-06-19T06:58:13.846Z,25.4
2019-06-19T06:59:21.075Z,25.3
2019-06-19T07:00:28.073Z,25.4
2019-06-19T07:01:35.367Z,25.6
2019-06-19T07:02:42.592Z,25.7
2019-06-19T07:03:49.826Z,25.8
2019-06-19T07:04:57.041Z,25.9
2019-06-19T07:06:05.078Z,26.2
2019-06-19T07:07:12.298Z,26.4
2019-06-19T07:08:19.542Z,26.5
2019-06-19T07:09:26.771Z,26.6
2019-06-19T07:10:34.008Z,26.6
2019-06-19T07:11:41.229Z,26.5
2019-06-19T07:12:48.502Z,26.5
2019-06-19T07:13:55.722Z,26.5
2019-06-19T07:15:02.961Z,26.3
2019-06-19T07:16:10.208Z,26.1
2019-06-19T07:17:18.841Z,26.2
2019-06-19T07:18:27.005Z,26.3
2019-06-19T07:19:34.328Z,26.5
2019-06-19T07:20:41.546Z,26.7
2019-06-19T07:21:48.783Z,26.6
2019-06-19T07:22:56.008Z,26.7
2019-06-19T07:24:02.979Z,26.9
2019-06-19T07:25:10.199Z,27.1
2019-06-19T07:26:17.436Z,27.1
2019-06-19T07:27:24.683Z,27.1
2019-06-19T07:28:31.677Z,26.9
2019-06-19T07:29:38.903Z,26.9
2019-06-19T07:30:46.149Z,27
2019-06-19T07:31:53.374Z,27.2
2019-06-19T07:33:00.656Z,27.2
2019-06-19T07:34:07.891Z,27.2
2019-06-19T07:35:14.856Z,27.3
2019-06-19T07:36:22.094Z,27.5
2019-06-19T07:37:29.075Z,27.6
2019-06-19T07:38:36.304Z,27.7
2019-06-19T07:39:43.557Z,27.8
2019-06-19T07:40:50.792Z,28
2019-06-19T07:41:57.756Z,28.1
2019-06-19T07:43:04.716Z,28
2019-06-19T07:44:11.955Z,28
2019-06-19T07:45:19.224Z,28.1
2019-06-19T07:46:26.474Z,28
2019-06-19T07:47:33.698Z,28
2019-06-19T07:48:40.928Z,28.1
2019-06-19T07:49:48.194Z,28.2
2019-06-19T07:50:55.440Z,28.2
2019-06-19T07:52:02.432Z,28.4
2019-06-19T07:53:09.701Z,28.6
2019-06-19T07:54:19.845Z,28.8
2019-06-19T07:55:27.852Z,28.7
2019-06-19T07:56:34.867Z,28.8
2019-06-19T07:57:42.096Z,28.9
2019-06-19T07:58:50.487Z,28.9
2019-06-19T07:59:57.719Z,29.1
2019-06-19T08:01:04.953Z,29.2
2019-06-19T08:02:11.936Z,29.2
2019-06-19T08:03:18.914Z,29.2
2019-06-19T08:04:26.205Z,29
2019-06-19T08:05:33.525Z,28.8
2019-06-19T08:06:40.801Z,28.6
2019-06-19T08:07:47.768Z,28.7
2019-06-19T08:08:54.996Z,28.7
2019-06-19T08:10:02.324Z,28.6
2019-06-19T08:11:09.568Z,28.6
2019-06-19T08:12:17.292Z,28.7
2019-06-19T08:13:24.258Z,28.7
2019-06-19T08:14:31.611Z,28.6
2019-06-19T08:15:38.861Z,28.5
2019-06-19T08:16:46.091Z,28.6
2019-06-19T08:17:53.056Z,28.7
2019-06-19T08:19:00.286Z,28.9
2019-06-19T08:20:11.862Z,29.2
2019-06-19T08:21:19.169Z,29.5
2019-06-19T08:22:26.406Z,29.7
2019-06-19T08:23:33.627Z,29.7
2019-06-19T08:24:40.860Z,29.8
2019-06-19T08:25:51.337Z,29.9
2019-06-19T08:26:58.572Z,29.7
2019-06-19T08:28:05.795Z,29.5
2019-06-19T08:29:13.038Z,29.6
2019-06-19T08:30:20.267Z,29.8
2019-06-19T08:31:27.526Z,29.6
2019-06-19T08:32:34.755Z,29.7
2019-06-19T08:33:42.058Z,30.1
2019-06-19T08:34:50.333Z,30.4
2019-06-19T08:35:57.583Z,30.7
2019-06-19T08:37:04.816Z,30.6
2019-06-19T08:38:12.046Z,30.6
2019-06-19T08:39:19.292Z,30.3
2019-06-19T08:40:26.544Z,30.2
2019-06-19T08:41:33.767Z,29.9
2019-06-19T08:42:41.123Z,29.8
2019-06-19T08:43:48.090Z,29.8
2019-06-19T08:44:55.337Z,29.6
2019-06-19T08:46:02.574Z,29.8
2019-06-19T08:47:09.808Z,30
2019-06-19T08:48:16.833Z,30.5
2019-06-19T08:49:24.110Z,30.7
2019-06-19T08:50:31.346Z,30.9
2019-06-19T08:51:38.591Z,30.8
2019-06-19T08:52:45.818Z,30.9
2019-06-19T08:53:53.065Z,30.6
2019-06-19T08:55:00.032Z,30.6
2019-06-19T08:56:07.783Z,30.4
2019-06-19T08:57:15.014Z,30.2
2019-06-19T08:58:22.258Z,30.3
2019-06-19T08:59:29.476Z,30.4
2019-06-19T09:00:36.718Z,30.4
2019-06-19T09:01:43.679Z,30.4
2019-06-19T09:02:50.867Z,30.5
2019-06-19T09:03:58.265Z,30.6
2019-06-19T09:05:05.519Z,30.7
2019-06-19T09:06:12.745Z,30.6
2019-06-19T09:07:19.987Z,30.7
2019-06-19T09:08:26.948Z,30.7
2019-06-19T09:09:34.188Z,30.8
2019-06-19T09:10:41.146Z,30.8
2019-06-19T09:11:48.121Z,31
2019-06-19T09:12:55.083Z,31
2019-06-19T09:14:01.781Z,30.9
2019-06-19T09:15:11.697Z,30.7
2019-06-19T09:16:18.989Z,30.7
2019-06-19T09:17:26.240Z,30.7
2019-06-19T09:18:33.200Z,30.7
2019-06-19T09:19:40.419Z,30.8
2019-06-19T09:20:47.652Z,30.6
2019-06-19T09:21:54.888Z,30.4
2019-06-19T09:23:02.145Z,30.9
2019-06-19T09:24:09.114Z,31.1
2019-06-19T09:25:16.356Z,30.6
2019-06-19T09:26:23.305Z,30.4
2019-06-19T09:27:30.596Z,30.5
2019-06-19T09:28:37.831Z,30.8
2019-06-19T09:29:44.795Z,31.2
2019-06-19T09:30:52.017Z,31.6
2019-06-19T09:31:59.289Z,31.8
2019-06-19T09:33:06.523Z,31.9
2019-06-19T09:34:13.848Z,32.3
2019-06-19T09:35:21.124Z,32.4
2019-06-19T09:36:28.380Z,32.3
2019-06-19T09:37:35.594Z,32.2
2019-06-19T09:38:42.829Z,32.1
2019-06-19T09:39:50.131Z,32.1
2019-06-19T09:40:57.435Z,31.7
2019-06-19T09:42:04.659Z,31.3
2019-06-19T09:43:11.927Z,31.4
2019-06-19T09:44:19.150Z,31.5
2019-06-19T09:45:25.872Z,31.3
2019-06-19T09:46:33.096Z,31.4
2019-06-19T09:47:40.071Z,31.8
2019-06-19T09:48:47.303Z,31.9
2019-06-19T09:49:54.266Z,31.9
2019-06-19T09:51:01.573Z,32
2019-06-19T09:52:08.851Z,32.1
2019-06-19T09:53:16.087Z,32.4
2019-06-19T09:54:23.049Z,32.1
2019-06-19T09:55:30.293Z,32.2
2019-06-19T09:56:37.538Z,32.3
2019-06-19T09:57:44.773Z,32.2
2019-06-19T09:58:52.073Z,32.3
2019-06-19T09:59:59.295Z,32.2
2019-06-19T10:01:06.573Z,32.6
2019-06-19T10:02:13.788Z,33.1
2019-06-19T10:03:35.027Z,32.6
2019-06-19T10:04:42.306Z,32.5
2019-06-19T10:05:49.562Z,32.4
2019-06-19T10:06:56.795Z,32.5
2019-06-19T10:08:04.077Z,32.6
2019-06-19T10:09:11.036Z,32.6
2019-06-19T10:10:18.005Z,32.6
2019-06-19T10:11:24.953Z,32.8
2019-06-19T10:12:32.195Z,33.2
2019-06-19T10:13:39.420Z,33.3
2019-06-19T10:14:46.710Z,33.7
2019-06-19T10:16:02.870Z,33.3
2019-06-19T10:17:09.875Z,32.6
2019-06-19T10:18:17.113Z,32.2
2019-06-19T10:19:24.353Z,32.1
2019-06-19T10:20:31.585Z,32.5
2019-06-19T10:21:38.829Z,32.6
2019-06-19T10:22:46.060Z,32.3
2019-06-19T10:23:53.049Z,32.2
2019-06-19T10:25:00.281Z,32.3
2019-06-19T10:26:07.527Z,32.5
2019-06-19T10:27:14.512Z,32.7
2019-06-19T10:28:21.477Z,32.8
2019-06-19T10:29:28.718Z,33
2019-06-19T10:30:35.957Z,33.2
2019-06-19T10:31:43.401Z,33.1
2019-06-19T10:32:50.371Z,33.3
2019-06-19T10:33:57.337Z,33.6
2019-06-19T10:35:04.580Z,33.2
2019-06-19T10:36:11.813Z,33.2
2019-06-19T10:37:19.080Z,33.2
2019-06-19T10:38:26.374Z,33.1
2019-06-19T10:39:33.658Z,33.3
2019-06-19T10:40:40.907Z,33.4
2019-06-19T10:41:47.902Z,33.7
2019-06-19T10:42:55.145Z,33.4
2019-06-19T10:44:02.118Z,33.2
2019-06-19T10:45:09.347Z,33.2
2019-06-19T10:46:16.593Z,33.2
2019-06-19T10:47:23.849Z,32.9
2019-06-19T10:48:31.096Z,32.9
2019-06-19T10:49:38.322Z,32.9
2019-06-19T10:50:45.557Z,32.9
2019-06-19T10:51:52.795Z,32.5
2019-06-19T10:53:00.080Z,32.7
2019-06-19T10:54:07.332Z,32.7
2019-06-19T10:55:14.307Z,33.1
2019-06-19T10:56:21.602Z,33.6
2019-06-19T10:57:28.565Z,33.8
2019-06-19T10:58:35.788Z,33.8
2019-06-19T10:59:42.760Z,33.7
2019-06-19T11:00:50.005Z,33.7
2019-06-19T11:01:57.249Z,33.6
2019-06-19T11:03:09.818Z,33.8
2019-06-19T11:04:17.067Z,33.5
2019-06-19T11:05:40.192Z,33.6
2019-06-19T11:06:46.978Z,33.3
2019-06-19T11:07:54.200Z,33.4
2019-06-19T11:09:01.448Z,33.7
2019-06-19T11:10:08.825Z,34
2019-06-19T11:11:16.118Z,33.6
2019-06-19T11:12:23.340Z,33.7
2019-06-19T11:13:30.579Z,33.7
2019-06-19T11:14:37.816Z,33.9
2019-06-19T11:15:45.056Z,34.1
2019-06-19T11:16:52.294Z,34.2
2019-06-19T11:17:59.559Z,34.2
2019-06-19T11:19:06.808Z,34.2
2019-06-19T11:20:14.098Z,34.2
2019-06-19T11:21:21.084Z,34.3
2019-06-19T11:22:28.050Z,34.7
2019-06-19T11:23:35.033Z,35.2
2019-06-19T11:24:42.312Z,35
2019-06-19T11:25:51.840Z,34.5
2019-06-19T11:26:59.216Z,34
2019-06-19T11:28:06.460Z,33.9
2019-06-19T11:29:13.698Z,33.6
2019-06-19T11:30:21.040Z,34
2019-06-19T11:31:28.300Z,34.4
2019-06-19T11:32:35.261Z,34.4
2019-06-19T11:33:42.627Z,34.1
2019-06-19T11:34:49.851Z,33.8
2019-06-19T11:35:58.159Z,33.6
2019-06-19T11:37:05.287Z,33.3
2019-06-19T11:38:12.560Z,33.7
2019-06-19T11:39:20.555Z,34.3
2019-06-19T11:40:27.806Z,34.7
2019-06-19T11:41:35.033Z,34.6
2019-06-19T11:42:42.281Z,34.4
2019-06-19T11:43:49.535Z,34.7
2019-06-19T11:44:56.772Z,34.9
2019-06-19T11:46:04.001Z,34.8
2019-06-19T11:47:11.249Z,34.7
2019-06-19T11:48:18.480Z,34.4
2019-06-19T11:49:25.731Z,34.1
2019-06-19T11:50:32.684Z,34.2
2019-06-19T11:51:39.928Z,34
2019-06-19T11:52:47.157Z,34.2
2019-06-19T11:53:54.495Z,34.4
2019-06-19T11:55:01.731Z,34.4
2019-06-19T11:56:12.328Z,34.5
2019-06-19T11:57:19.578Z,34.5
2019-06-19T11:58:27.262Z,34.6
2019-06-19T11:59:34.536Z,34.9
2019-06-19T12:00:41.795Z,34.8
2019-06-19T12:01:49.100Z,35
2019-06-19T12:02:56.340Z,35.2
2019-06-19T12:04:03.303Z,34.7
2019-06-19T12:05:10.265Z,34.5
2019-06-19T12:06:17.688Z,34.4
2019-06-19T12:07:24.678Z,34.3
2019-06-19T12:08:31.919Z,34.4
2019-06-19T12:09:39.169Z,34.4
2019-06-19T12:10:46.408Z,34.4
2019-06-19T12:11:53.401Z,34.4
2019-06-19T12:13:00.732Z,34.5
2019-06-19T12:14:19.293Z,34.4
2019-06-19T12:15:26.694Z,34.4
2019-06-19T12:16:33.665Z,34.3
2019-06-19T12:17:40.982Z,34.4
2019-06-19T12:18:48.339Z,34.2
2019-06-19T12:19:55.592Z,34
2019-06-19T12:21:02.883Z,33.8
2019-06-19T12:22:10.116Z,33.8
2019-06-19T12:23:17.159Z,34.1
2019-06-19T12:24:24.135Z,34.1
2019-06-19T12:25:31.162Z,34.1
2019-06-19T12:26:38.460Z,34.4
2019-06-19T12:27:45.530Z,33.9
2019-06-19T12:28:52.545Z,33.7
2019-06-19T12:30:06.848Z,33.7
2019-06-19T12:31:14.406Z,33.9
2019-06-19T12:32:21.660Z,34
2019-06-19T12:33:28.885Z,34.4
2019-06-19T12:34:35.944Z,34.8
2019-06-19T12:35:43.170Z,35.2
2019-06-19T12:36:50.486Z,35.1
2019-06-19T12:37:57.501Z,35.1
2019-06-19T12:39:04.782Z,34.6
2019-06-19T12:40:11.724Z,34.3
2019-06-19T12:41:19.019Z,34.3
2019-06-19T12:42:26.249Z,34.6
2019-06-19T12:43:33.234Z,34.7
2019-06-19T12:44:40.468Z,34.9
2019-06-19T12:45:47.810Z,35
2019-06-19T12:46:55.062Z,34.9
2019-06-19T12:48:02.448Z,35.3
2019-06-19T12:49:09.750Z,35.2
2019-06-19T12:50:16.730Z,35.2
2019-06-19T12:51:23.965Z,35.1
2019-06-19T12:52:30.956Z,35
2019-06-19T12:53:38.194Z,35
2019-06-19T12:54:45.199Z,35
2019-06-19T12:55:52.465Z,34.8
2019-06-19T12:56:59.663Z,34.9
2019-06-19T12:58:06.881Z,34.7
2019-06-19T12:59:14.122Z,34.6
2019-06-19T13:00:21.384Z,34.8
2019-06-19T13:01:28.626Z,35.2
2019-06-19T13:02:35.902Z,35.1
2019-06-19T13:03:43.146Z,35.1
2019-06-19T13:04:50.401Z,34.9
2019-06-19T13:05:57.640Z,34.6
2019-06-19T13:07:04.880Z,34.4
2019-06-19T13:08:12.167Z,34.8
2019-06-19T13:09:19.429Z,35.1
2019-06-19T13:10:26.677Z,34.9
2019-06-19T13:11:33.916Z,35
2019-06-19T13:12:41.176Z,35.2
2019-06-19T13:13:49.060Z,34.9
2019-06-19T13:14:56.321Z,34.7
2019-06-19T13:16:03.563Z,34.7
2019-06-19T13:17:10.812Z,35
2019-06-19T13:18:18.089Z,35.5
2019-06-19T13:19:25.355Z,35.2
2019-06-19T13:20:32.604Z,35.3
2019-06-19T13:21:39.898Z,35.2
2019-06-19T13:22:47.205Z,34.9
2019-06-19T13:23:54.172Z,34.4
2019-06-19T13:25:01.410Z,34.5
2019-06-19T13:26:08.434Z,34.9
2019-06-19T13:27:15.673Z,34.8
2019-06-19T13:28:22.661Z,35
2019-06-19T13:29:30.020Z,35
2019-06-19T13:30:37.329Z,34.7
2019-06-19T13:31:44.613Z,34.6
2019-06-19T13:32:51.860Z,34.7
2019-06-19T13:33:58.820Z,34.6
2019-06-19T13:35:06.212Z,34.7
2019-06-19T13:36:13.472Z,35.2
2019-06-19T13:37:20.720Z,35.4
2019-06-19T13:38:27.964Z,35.8
2019-06-19T13:39:35.219Z,35.9
2019-06-19T13:40:42.180Z,36
2019-06-19T13:41:49.252Z,35.5
2019-06-19T13:42:56.667Z,35.3
2019-06-19T13:44:03.865Z,35.7
2019-06-19T13:45:11.106Z,35.7
2019-06-19T13:46:18.352Z,35.4
2019-06-19T13:47:25.583Z,35
2019-06-19T13:48:32.821Z,35.2
2019-06-19T13:49:39.781Z,35.2
2019-06-19T13:50:47.025Z,35.3
2019-06-19T13:51:54.257Z,35.5
2019-06-19T13:53:01.510Z,35.7
2019-06-19T13:54:08.205Z,35.9
2019-06-19T13:55:15.447Z,35.9
2019-06-19T13:56:22.670Z,35.9
2019-06-19T13:57:42.755Z,35.6
2019-06-19T13:58:54.989Z,35.3
2019-06-19T14:00:02.344Z,35.4
2019-06-19T14:01:09.656Z,35.8
2019-06-19T14:02:16.903Z,35.5
2019-06-19T14:03:23.888Z,35.2
2019-06-19T14:04:31.146Z,35.2
2019-06-19T14:05:38.140Z,34.8
2019-06-19T14:06:45.402Z,34.7
2019-06-19T14:07:54.478Z,35.1
2019-06-19T14:09:01.721Z,35.4
2019-06-19T14:10:08.955Z,35
2019-06-19T14:11:16.197Z,34.9
2019-06-19T14:12:23.430Z,35.2
2019-06-19T14:13:30.739Z,35.1
2019-06-19T14:14:38.009Z,34.7
2019-06-19T14:15:45.257Z,34.5
2019-06-19T14:16:52.494Z,34.7
2019-06-19T14:17:59.766Z,35
2019-06-19T14:19:07.000Z,34.6
2019-06-19T14:20:14.255Z,34.3
2019-06-19T14:21:21.491Z,34.6
2019-06-19T14:22:28.781Z,35.1
2019-06-19T14:23:35.741Z,35.5
2019-06-19T14:24:42.716Z,35.9
2019-06-19T14:25:49.943Z,36.1
2019-06-19T14:26:57.200Z,35.8
2019-06-19T14:28:04.187Z,35.8
2019-06-19T14:29:11.531Z,35.7
2019-06-19T14:30:18.752Z,35.8
2019-06-19T14:31:25.997Z,36.1
2019-06-19T14:32:33.234Z,35.7
2019-06-19T14:33:40.638Z,35.4
2019-06-19T14:34:47.873Z,35.3
2019-06-19T14:35:55.111Z,35.1
2019-06-19T14:37:02.346Z,35.1
2019-06-19T14:38:09.597Z,35.1
2019-06-19T14:39:16.839Z,35.2
2019-06-19T14:40:24.087Z,35
2019-06-19T14:41:31.341Z,35.1
2019-06-19T14:42:38.578Z,34.7
2019-06-19T14:43:45.810Z,34.7
2019-06-19T14:44:52.778Z,34.6
2019-06-19T14:46:00.013Z,34.8
2019-06-19T14:47:07.273Z,34.8
2019-06-19T14:48:14.509Z,34.7
2019-06-19T14:49:21.757Z,34.9
2019-06-19T14:50:28.981Z,34.8
2019-06-19T14:51:35.956Z,35.2
2019-06-19T14:52:43.207Z,35.6
2019-06-19T14:53:50.483Z,36
2019-06-19T14:54:57.752Z,36
2019-06-19T14:56:05.130Z,36.3
2019-06-19T14:57:16.725Z,35.7
2019-06-19T14:58:23.992Z,36
2019-06-19T14:59:30.967Z,36
2019-06-19T15:00:38.209Z,36
2019-06-19T15:01:45.877Z,35.9
2019-06-19T15:02:53.169Z,35.9
2019-06-19T15:04:00.431Z,35.6
2019-06-19T15:05:07.397Z,35.4
2019-06-19T15:06:14.370Z,35.4
2019-06-19T15:07:21.640Z,35.2